Time;durP1;ratioP1;P1;durP2;ratioP2;P2;SDS_P1;SDS_P2;PMS_P1;PMS_P2;Temp;Humidity;BMP_temperature;BMP_pressure;BME280_temperature;BME280_humidity;BME280_pressure;Samples;Min_cycle;Max_cycle;Signal;HPM_P1;HPM_P2
2022/04/11 00:00:33;;;;;;;20.10;13.75;;;;;;;3.85;93.85;100971.06;8278662;28;20042;-86
2022/04/11 00:04:34;;;;;;;16.63;12.90;;;;;;;3.85;93.95;100968.41;8296243;28;20057;-86
2022/04/11 00:08:34;;;;;;;17.23;12.68;;;;;;;3.87;93.17;100958.50;8312856;28;20034;-86
2022/04/11 00:12:36;;;;;;;21.55;13.02;;;;;;;3.78;92.86;100939.41;8295957;28;20113;-85
2022/04/11 00:16:37;;;;;;;18.50;11.32;;;;;;;3.98;92.60;100971.25;8317012;28;20056;-85
2022/04/11 00:20:37;;;;;;;16.98;11.50;;;;;;;3.99;91.39;100946.22;8316589;28;20034;-86
2022/04/11 00:24:37;;;;;;;17.85;11.15;;;;;;;4.08;90.72;100959.94;8300443;28;20485;-86
2022/04/11 00:28:38;;;;;;;16.98;11.20;;;;;;;4.06;90.57;100959.16;8319842;28;20086;-85
2022/04/11 00:32:40;;;;;;;15.80;10.80;;;;;;;3.97;89.98;100935.59;8333471;28;20489;-86
2022/04/11 00:36:40;;;;;;;15.02;9.50;;;;;;;4.13;89.60;100946.28;8300103;28;20029;-85
2022/04/11 00:40:41;;;;;;;13.85;9.85;;;;;;;3.95;89.48;100910.78;8316470;28;20041;-86
2022/04/11 00:44:41;;;;;;;14.25;10.05;;;;;;;4.06;89.36;100940.41;8332481;28;20082;-86
2022/04/11 00:48:42;;;;;;;14.20;9.80;;;;;;;4.01;89.54;100910.41;8332488;28;20436;-85
2022/04/11 00:52:45;;;;;;;17.88;9.93;;;;;;;3.98;88.93;100897.22;8314883;28;20447;-86
2022/04/11 00:56:46;;;;;;;14.38;9.77;;;;;;;4.16;88.69;100918.47;8315693;28;20629;-86
2022/04/11 01:00:47;;;;;;;14.02;9.73;;;;;;;4.20;88.30;100923.56;8298818;28;20033;-85
2022/04/11 01:04:47;;;;;;;14.50;10.20;;;;;;;4.24;88.53;100921.56;8299205;28;20095;-85
2022/04/11 01:08:48;;;;;;;13.88;9.98;;;;;;;4.21;88.88;100919.09;8299508;28;20599;-85
2022/04/11 01:12:49;;;;;;;12.15;9.52;;;;;;;4.11;89.52;100905.38;8299145;28;20042;-86
2022/04/11 01:16:51;;;;;;;14.93;11.00;;;;;;;4.13;90.56;100903.47;8305273;28;20494;-86
2022/04/11 01:20:53;;;;;;;15.25;9.95;;;;;;;4.17;89.75;100904.16;8331770;28;20045;-85
2022/04/11 01:24:53;;;;;;;10.27;9.18;;;;;;;4.22;89.47;100907.41;8331679;28;20037;-85
2022/04/11 01:28:55;;;;;;;12.00;9.52;;;;;;;4.20;89.12;100893.28;8331327;28;20037;-86
2022/04/11 01:32:56;;;;;;;11.50;9.02;;;;;;;4.25;89.12;100899.22;8298609;28;20100;-86
2022/04/11 01:36:57;;;;;;;11.40;8.98;;;;;;;4.21;89.00;100906.53;8314357;28;20113;-86
2022/04/11 01:40:58;;;;;;;11.20;8.90;;;;;;;4.17;89.53;100893.47;8298191;28;20120;-85
2022/04/11 01:44:58;;;;;;;14.02;9.45;;;;;;;4.11;90.24;100893.84;8281748;28;20041;-86
2022/04/11 01:48:59;;;;;;;15.00;9.48;;;;;;;4.06;90.69;100884.25;8298087;28;20040;-85
2022/04/11 01:53:17;;;;;;;11.27;8.77;;;;;;;4.05;91.36;100890.56;8314489;28;20490;-85
2022/04/11 01:57:18;;;;;;;14.00;9.70;;;;;;;3.98;92.51;100883.84;8298142;28;20096;-85
2022/04/11 02:01:18;;;;;;;13.90;9.93;;;;;;;3.98;92.75;100894.56;8314548;28;20037;-86
2022/04/11 02:05:19;;;;;;;13.02;9.52;;;;;;;3.97;92.36;100887.47;8297765;28;20839;-85
2022/04/11 02:09:19;;;;;;;12.75;9.60;;;;;;;3.98;92.73;100883.84;8297954;28;20065;-85
2022/04/11 02:13:20;;;;;;;13.95;9.90;;;;;;;3.89;92.88;100876.38;8297945;28;20057;-85
2022/04/11 02:17:20;;;;;;;13.45;9.32;;;;;;;3.90;93.11;100879.88;8314350;28;20041;-86
2022/04/11 02:21:20;;;;;;;15.57;9.48;;;;;;;3.87;93.17;100864.00;8313334;28;20497;-86
2022/04/11 02:25:24;;;;;;;12.48;9.27;;;;;;;3.97;92.40;100871.41;8296969;28;20046;-86
2022/04/11 02:29:24;;;;;;;11.10;8.98;;;;;;;3.91;92.75;100881.63;8297497;28;20498;-86
2022/04/11 02:33:24;;;;;;;14.77;8.48;;;;;;;3.89;92.80;100872.81;8296724;28;20378;-86
2022/04/11 02:37:25;;;;;;;9.48;8.40;;;;;;;3.89;93.50;100876.38;8281121;28;20038;-86
2022/04/11 02:41:25;;;;;;;12.50;9.43;;;;;;;3.84;94.10;100870.41;8280007;28;20033;-86
2022/04/11 02:45:26;;;;;;;13.80;9.38;;;;;;;3.75;94.40;100854.03;8297019;28;20109;-86
2022/04/11 02:49:26;;;;;;;12.98;9.13;;;;;;;3.76;94.36;100861.97;8279695;28;20079;-86
2022/04/11 02:53:27;;;;;;;10.70;8.85;;;;;;;3.81;93.58;100859.91;8323344;28;20084;-85
2022/04/11 02:57:29;;;;;;;10.23;8.40;;;;;;;3.75;93.74;100852.22;8344826;28;20030;-85
2022/04/11 03:01:29;;;;;;;13.40;9.13;;;;;;;3.71;94.26;100864.06;8286214;28;20834;-85
2022/04/11 03:05:30;;;;;;;11.70;8.85;;;;;;;3.71;94.86;100858.72;8312259;28;20624;-85
2022/04/11 03:09:31;;;;;;;14.52;8.75;;;;;;;3.75;94.78;100868.28;8303896;28;20458;-85
2022/04/11 03:13:31;;;;;;;12.73;8.90;;;;;;;3.74;94.63;100865.69;8344899;28;20094;-85
2022/04/11 03:17:32;;;;;;;13.07;8.80;;;;;;;3.69;95.04;100875.81;8328207;28;20044;-85
2022/04/11 03:21:33;;;;;;;14.20;9.77;;;;;;;3.67;95.48;100869.69;8333038;28;20055;-85
2022/04/11 03:25:33;;;;;;;16.65;10.15;;;;;;;3.67;95.87;100862.53;8311882;28;20080;-85
2022/04/11 03:29:34;;;;;;;16.75;10.00;;;;;;;3.68;95.62;100861.56;8312012;28;20053;-85
2022/04/11 03:33:34;;;;;;;13.77;9.48;;;;;;;3.70;96.03;100862.34;8344687;28;20041;-85
2022/04/11 03:37:35;;;;;;;13.63;10.07;;;;;;;3.68;95.59;100864.25;8344876;28;20041;-85
2022/04/11 03:41:36;;;;;;;14.35;9.82;;;;;;;3.71;95.49;100858.72;8311492;28;20025;-85
2022/04/11 03:45:36;;;;;;;13.90;9.35;;;;;;;3.69;95.33;100854.44;8316536;28;20032;-85
2022/04/11 03:49:37;;;;;;;16.27;9.68;;;;;;;3.67;95.32;100850.97;8350895;28;20030;-85
2022/04/11 03:53:37;;;;;;;12.98;9.88;;;;;;;3.64;96.14;100844.00;8317446;28;20053;-85
2022/04/11 03:57:38;;;;;;;17.70;10.68;;;;;;;3.60;96.13;100850.44;8350023;28;20142;-85
2022/04/11 04:01:38;;;;;;;14.55;10.07;;;;;;;3.56;96.57;100859.59;8349272;28;20087;-85
2022/04/11 04:05:42;;;;;;;16.77;9.05;;;;;;;3.44;97.22;100849.63;8311274;28;20040;-86
2022/04/11 04:09:42;;;;;;;13.25;10.07;;;;;;;3.45;97.12;100835.28;8300610;28;20034;-86
2022/04/11 04:13:43;;;;;;;17.50;10.27;;;;;;;3.45;97.35;100837.13;8300853;28;20030;-86
2022/04/11 04:17:43;;;;;;;16.45;9.75;;;;;;;3.41;97.10;100841.78;8335355;28;20033;-86
2022/04/11 04:21:43;;;;;;;12.75;9.95;;;;;;;3.32;97.50;100844.09;8332877;28;20037;-86
2022/04/11 04:25:44;;;;;;;13.13;9.88;;;;;;;3.26;98.92;100845.31;8333744;28;20030;-86
2022/04/11 04:29:44;;;;;;;18.40;9.70;;;;;;;3.21;98.50;100849.19;8315908;28;20029;-86
2022/04/11 04:33:45;;;;;;;17.55;9.25;;;;;;;3.15;99.09;100845.06;8332587;28;20060;-85
2022/04/11 04:37:45;;;;;;;13.27;9.73;;;;;;;3.09;99.18;100848.09;8332959;28;20033;-85
2022/04/11 04:41:46;;;;;;;13.73;9.32;;;;;;;3.12;98.67;100836.38;8316046;28;20447;-86
2022/04/11 04:45:47;;;;;;;12.57;9.27;;;;;;;3.09;99.26;100845.41;8315583;28;20034;-86
2022/04/11 04:49:48;;;;;;;13.43;9.45;;;;;;;3.10;98.94;100848.94;8338263;28;20040;-86
2022/04/11 04:53:48;;;;;;;14.23;9.23;;;;;;;3.02;99.12;100846.69;8300722;28;20046;-86
2022/04/11 04:57:49;;;;;;;21.50;10.50;;;;;;;3.02;99.26;100852.03;8311056;28;20717;-86
2022/04/11 05:01:49;;;;;;;14.52;9.55;;;;;;;2.92;99.46;100839.25;8330644;28;20172;-86
2022/04/11 05:05:49;;;;;;;11.88;9.40;;;;;;;2.84;99.36;100823.66;8330146;28;20034;-86
2022/04/11 05:09:50;;;;;;;13.27;8.90;;;;;;;2.86;99.34;100831.59;8297173;28;20042;-86
2022/04/11 05:13:50;;;;;;;14.40;9.90;;;;;;;3.06;99.23;100852.72;8332484;28;20037;-88
2022/04/11 05:17:51;;;;;;;12.85;8.05;;;;;;;3.10;98.84;100855.16;8315059;28;20509;-86
2022/04/11 05:21:51;;;;;;;16.88;9.55;;;;;;;3.15;98.33;100841.53;8345217;28;20043;-86
2022/04/11 05:25:52;;;;;;;14.35;9.30;;;;;;;3.17;97.78;100851.19;8320416;28;20065;-86
2022/04/11 05:29:53;;;;;;;12.63;9.23;;;;;;;3.23;97.62;100832.13;8293972;28;20041;-87
2022/04/11 05:33:53;;;;;;;19.20;9.60;;;;;;;3.55;96.59;100849.88;8337836;28;20041;-87
2022/04/11 05:37:53;;;;;;;13.38;8.93;;;;;;;3.70;95.42;100843.66;8317541;28;20057;-87
2022/04/11 05:41:54;;;;;;;24.17;10.13;;;;;;;3.93;95.42;100840.47;8296970;28;20423;-86
2022/04/11 05:45:54;;;;;;;18.98;8.57;;;;;;;4.14;93.80;100840.16;8304757;28;20560;-87
2022/04/11 05:49:55;;;;;;;11.85;8.57;;;;;;;4.33;92.90;100851.44;8312297;28;20040;-86
2022/04/11 05:53:55;;;;;;;17.17;10.68;;;;;;;4.54;92.21;100850.16;8320570;28;20095;-86
2022/04/11 05:57:55;;;;;;;19.08;9.70;;;;;;;4.75;90.25;100848.78;8307801;28;20408;-86
2022/04/11 06:01:56;;;;;;;15.77;8.45;;;;;;;5.02;89.58;100841.69;8307700;28;20060;-87
2022/04/11 06:05:56;;;;;;;38.78;12.25;;;;;;;5.29;88.54;100847.97;8318381;28;20064;-87
2022/04/11 06:09:57;;;;;;;39.47;16.30;;;;;;;5.53;87.55;100849.03;8319714;28;20038;-86
2022/04/11 06:13:57;;;;;;;38.70;16.88;;;;;;;5.76;87.17;100846.56;8320785;28;20088;-87
2022/04/11 06:17:58;;;;;;;21.20;10.70;;;;;;;5.89;86.67;100835.91;8300633;28;20040;-87
2022/04/11 06:21:58;;;;;;;15.68;7.18;;;;;;;7.49;83.92;100839.59;8315828;28;20042;-87
2022/04/11 06:26:00;;;;;;;12.63;9.13;;;;;;;6.86;81.06;100829.97;8310183;28;20072;-87
2022/04/11 06:30:01;;;;;;;17.02;8.02;;;;;;;6.52;84.52;100836.84;8303412;28;20052;-87
2022/04/11 06:34:01;;;;;;;11.63;7.10;;;;;;;6.60;84.74;100829.13;8300857;28;20067;-87
2022/04/11 06:38:05;;;;;;;14.32;6.80;;;;;;;6.65;83.65;100815.38;8296359;28;20038;-87
2022/04/11 06:42:07;;;;;;;10.03;5.97;;;;;;;6.86;83.41;100825.44;8317119;28;20049;-88
2022/04/11 06:46:07;;;;;;;11.02;6.68;;;;;;;6.72;82.32;100790.66;8280948;28;20072;-87
2022/04/11 06:50:08;;;;;;;17.05;6.40;;;;;;;7.23;81.55;100797.59;8305253;28;20029;-87
2022/04/11 06:54:08;;;;;;;11.45;5.47;;;;;;;7.39;79.88;100835.00;8311265;28;20040;-88
2022/04/11 06:58:08;;;;;;;10.20;5.68;;;;;;;7.63;79.38;100822.41;8312440;28;20049;-87
2022/04/11 07:02:09;;;;;;;9.25;5.18;;;;;;;7.77;79.17;100815.00;8295027;28;20042;-89
2022/04/11 07:06:10;;;;;;;10.57;5.10;;;;;;;7.84;78.65;100827.03;8308834;28;20514;-89
2022/04/11 07:10:11;;;;;;;9.40;5.53;;;;;;;7.95;78.61;100821.69;8319555;28;20033;-89
2022/04/11 07:14:11;;;;;;;15.15;5.40;;;;;;;8.18;78.56;100813.69;8291950;28;20095;-89
2022/04/11 07:18:12;;;;;;;11.85;5.97;;;;;;;8.51;76.33;100811.94;8305708;28;20122;-90
2022/04/11 07:22:12;;;;;;;11.98;5.03;;;;;;;8.69;75.92;100826.66;8325420;28;20055;-90
2022/04/11 07:26:13;;;;;;;9.35;5.32;;;;;;;9.08;75.11;100811.84;8304522;28;20041;-90
2022/04/11 07:30:13;;;;;;;16.20;5.63;;;;;;;9.04;73.53;100811.25;8314948;28;20038;-90
2022/04/11 07:34:14;;;;;;;9.20;4.53;;;;;;;9.27;73.25;100817.47;8295755;28;20528;-90
2022/04/11 07:38:14;;;;;;;10.73;4.75;;;;;;;9.43;74.54;100823.34;8298335;28;20120;-90
2022/04/11 07:42:15;;;;;;;9.55;4.75;;;;;;;9.72;73.31;100808.28;8312992;28;20438;-90
2022/04/11 07:46:15;;;;;;;9.60;4.65;;;;;;;9.93;72.30;100807.34;8302886;28;20125;-90
2022/04/11 07:50:16;;;;;;;9.82;5.25;;;;;;;10.40;72.05;100789.78;8320347;28;20518;-91
2022/04/11 07:54:16;;;;;;;8.68;4.40;;;;;;;10.18;70.22;100789.91;8340842;28;20045;-91
2022/04/11 07:58:18;;;;;;;8.63;3.88;;;;;;;10.26;68.71;100770.34;8315805;28;20102;-91
2022/04/11 08:02:27;;;;;;;14.48;4.60;;;;;;;10.89;69.77;100787.19;8307624;28;20049;-91
2022/04/11 08:06:27;;;;;;;8.02;4.13;;;;;;;11.25;67.96;100781.19;8312617;28;20124;-91
2022/04/11 08:10:28;;;;;;;11.10;3.85;;;;;;;11.20;65.30;100775.31;8296533;28;20033;-91
2022/04/11 08:14:30;;;;;;;6.53;3.38;;;;;;;11.34;62.61;100764.13;8295373;28;20033;-91
2022/04/11 08:18:31;;;;;;;4.90;2.83;;;;;;;11.27;63.49;100754.84;8306537;28;20048;-90
2022/04/11 08:22:31;;;;;;;8.63;3.08;;;;;;;11.51;61.29;100773.41;8312894;28;20033;-91
2022/04/11 08:26:32;;;;;;;4.53;2.38;;;;;;;11.64;59.66;100776.75;8320543;28;20044;-91
2022/04/11 08:30:32;;;;;;;7.30;3.15;;;;;;;11.69;60.06;100750.09;8317792;28;20393;-91
2022/04/11 08:34:33;;;;;;;6.05;3.00;;;;;;;11.96;59.83;100754.78;8323471;28;20033;-91
2022/04/11 08:38:33;;;;;;;5.57;2.75;;;;;;;12.01;58.99;100750.66;8293681;28;20493;-91
2022/04/11 08:42:34;;;;;;;6.95;2.58;;;;;;;12.16;58.71;100751.03;8295942;28;20048;-90
2022/04/11 08:46:35;;;;;;;8.27;2.72;;;;;;;12.61;57.10;100749.38;8311646;28;20112;-90
2022/04/11 08:50:36;;;;;;;5.03;2.40;;;;;;;12.53;57.14;100743.84;8322831;28;20109;-90
2022/04/11 08:54:37;;;;;;;3.30;2.22;;;;;;;12.37;56.14;100740.88;8300570;28;20033;-90
2022/04/11 08:58:37;;;;;;;4.05;2.20;;;;;;;12.32;56.53;100735.06;8306319;28;20030;-88
2022/04/11 09:02:39;;;;;;;4.68;2.25;;;;;;;12.58;55.28;100733.41;8293785;28;20044;-90
2022/04/11 09:06:39;;;;;;;5.25;2.10;;;;;;;12.99;54.84;100716.66;8304915;28;20055;-89
2022/04/11 09:10:41;;;;;;;5.35;2.25;;;;;;;13.10;55.49;100721.91;8335887;28;20116;-89
2022/04/11 09:14:42;;;;;;;4.47;2.50;;;;;;;13.19;56.45;100734.56;8310440;28;20026;-88
2022/04/11 09:18:48;;;;;;;3.80;2.42;;;;;;;12.86;55.07;100721.56;8323424;28;20060;-89
2022/04/11 09:22:49;;;;;;;3.63;2.00;;;;;;;13.14;55.22;100732.31;8317065;28;20042;-89
2022/04/11 09:26:54;;;;;;;4.85;1.65;;;;;;;13.40;54.10;100718.84;8308648;28;20041;-92
2022/04/11 09:30:54;;;;;;;5.85;2.20;;;;;;;13.26;54.34;100706.66;8300368;28;20044;-89
2022/04/11 09:34:55;;;;;;;4.65;2.50;;;;;;;13.51;53.54;100715.94;8314851;28;20041;-88
2022/04/11 09:38:58;;;;;;;4.38;2.00;;;;;;;14.65;52.26;100717.53;8292644;28;20037;-88
2022/04/11 09:42:58;;;;;;;3.30;1.95;;;;;;;15.15;49.99;100685.75;8310726;28;20141;-89
2022/04/11 09:47:03;;;;;;;2.63;2.30;;;;;;;15.40;48.63;100717.50;8324899;28;20724;-89
2022/04/11 09:51:13;;;;;;;4.68;1.92;;;;;;;16.71;47.59;100719.06;8342654;28;20045;-89
2022/04/11 09:55:14;;;;;;;4.53;2.15;;;;;;;16.60;46.47;100710.41;8314629;28;20042;-89
2022/04/11 09:59:14;;;;;;;4.68;1.73;;;;;;;16.45;47.97;100710.25;8295146;28;20044;-89
2022/04/11 10:03:17;;;;;;;5.40;2.45;;;;;;;17.18;46.58;100699.94;8295148;28;20049;-90
2022/04/11 10:07:17;;;;;;;6.38;2.05;;;;;;;17.21;45.23;100664.06;8289505;28;20029;-91
2022/04/11 10:11:18;;;;;;;6.28;2.03;;;;;;;17.55;46.22;100670.00;8332039;28;20061;-90
2022/04/11 10:15:21;;;;;;;7.22;1.95;;;;;;;17.40;46.13;100642.59;8292002;28;20041;-89
2022/04/11 10:19:24;;;;;;;4.28;1.95;;;;;;;16.98;45.14;100654.94;8293604;28;20044;-89
2022/04/11 10:23:39;;;;;;;2.72;2.10;;;;;;;17.13;45.07;100642.22;8343876;28;20121;-90
2022/04/11 10:27:39;;;;;;;6.10;2.20;;;;;;;17.03;43.72;100645.19;8330221;28;20046;-88
2022/04/11 10:31:43;;;;;;;4.97;2.03;;;;;;;16.86;44.69;100634.50;8308674;28;20195;-89
2022/04/11 10:35:44;;;;;;;3.90;1.98;;;;;;;17.17;43.75;100611.63;8290540;28;20025;-89
2022/04/11 10:39:46;;;;;;;4.35;2.72;;;;;;;16.90;44.62;100657.72;8315023;28;20033;-89
2022/04/11 10:44:26;;;;;;;8.00;2.58;;;;;;;17.58;43.58;100634.09;8293774;28;20037;-90
2022/04/11 10:49:05;;;;;;;3.28;1.95;;;;;;;18.18;42.47;100629.47;8324826;28;20045;-89
2022/04/11 10:57:37;;;;;;;5.03;2.30;;;;;;;17.38;43.05;100610.97;8278984;28;20376;-62
2022/04/11 11:06:15;;;;;;;5.80;2.15;;;;;;;17.95;42.86;100612.25;8363472;27;20876;-63
2022/04/11 11:10:27;;;;;;;3.92;2.08;;;;;;;17.64;43.36;100614.22;8350402;28;20040;-63
2022/04/11 11:14:43;;;;;;;6.15;2.53;;;;;;;18.11;40.89;100600.28;8348481;28;20048;-63
2022/04/11 11:23:31;;;;;;;8.00;2.65;;;;;;;18.01;42.33;100589.59;8324015;27;20777;-61
2022/04/11 11:27:32;;;;;;;5.40;2.22;;;;;;;17.74;42.62;100581.13;8335864;28;20537;-61
2022/04/11 11:31:33;;;;;;;10.98;2.92;;;;;;;17.72;43.56;100564.94;8339167;28;20490;-61
2022/04/11 11:35:34;;;;;;;5.97;2.80;;;;;;;18.29;44.22;100571.50;8339763;28;20445;-61
2022/04/11 11:39:37;;;;;;;3.75;2.40;;;;;;;18.48;41.34;100560.00;8335169;28;20037;-61
2022/04/11 11:43:37;;;;;;;7.75;2.75;;;;;;;18.52;44.10;100560.47;8336310;28;20040;-61
2022/04/11 11:47:37;;;;;;;5.13;3.03;;;;;;;18.62;44.40;100567.38;8330829;28;20037;-62
2022/04/11 11:51:38;;;;;;;4.27;3.17;;;;;;;18.66;43.99;100554.97;8334530;28;20040;-62
2022/04/11 11:55:50;;;;;;;8.35;3.53;;;;;;;19.41;44.51;100558.19;8337225;28;20622;-62
2022/04/11 12:00:01;;;;;;;11.27;2.75;;;;;;;19.27;44.32;100543.47;8321789;28;20453;-62
2022/04/11 12:04:33;;;;;;;4.28;2.70;;;;;;;19.11;44.05;100551.94;8328861;28;20103;-62
2022/04/11 12:08:22;;;;;;;7.10;3.13;;;;;;;18.59;44.00;100543.09;8319628;28;20080;-62
2022/04/11 12:12:22;;;;;;;6.00;3.67;;;;;;;17.89;44.87;100530.91;8330784;28;20595;-62
2022/04/11 12:16:23;;;;;;;10.65;3.50;;;;;;;17.07;46.62;100533.66;8338020;28;20112;-62
2022/04/11 12:20:23;;;;;;;8.02;3.15;;;;;;;16.76;47.88;100514.59;8333885;28;20072;-62
2022/04/11 12:24:30;;;;;;;5.63;3.08;;;;;;;16.81;47.48;100514.06;8336403;28;20090;-63
2022/04/11 12:28:34;;;;;;;6.78;3.03;;;;;;;16.56;47.05;100501.59;8328951;28;20147;-63
2022/04/11 12:32:39;;;;;;;3.97;2.75;;;;;;;16.18;47.82;100502.41;8308097;28;20145;-63
2022/04/11 12:37:03;;;;;;;10.90;3.72;;;;;;;16.13;47.63;100493.94;8307654;28;20053;-63
2022/04/11 12:41:03;;;;;;;6.22;3.13;;;;;;;16.29;47.86;100493.84;8311948;28;20041;-63
2022/04/11 12:45:07;;;;;;;6.53;2.80;;;;;;;16.32;47.53;100488.03;8311652;28;20091;-63
2022/04/11 12:49:09;;;;;;;9.65;3.00;;;;;;;16.65;48.16;100490.44;8307313;28;20037;-63
2022/04/11 12:53:11;;;;;;;6.63;2.83;;;;;;;16.72;46.57;100490.56;8306966;28;20053;-63
2022/04/11 12:57:18;;;;;;;5.25;2.30;;;;;;;16.37;46.91;100481.00;8312410;28;20045;-63
2022/04/11 13:01:19;;;;;;;3.50;2.15;;;;;;;16.71;47.80;100469.78;8302856;28;20049;-63
2022/04/11 13:05:19;;;;;;;7.10;2.73;;;;;;;16.58;46.62;100472.22;8310491;28;20048;-63
2022/04/11 13:09:21;;;;;;;5.40;2.90;;;;;;;16.70;46.26;100455.25;8301206;28;20343;-63
2022/04/11 13:13:21;;;;;;;6.45;2.72;;;;;;;16.53;45.87;100463.75;8309462;28;20111;-63
2022/04/11 13:18:24;;;;;;;8.18;2.90;;;;;;;16.34;45.75;100447.75;8313445;28;20076;-63
2022/04/11 13:21:42;;;;;;;6.50;2.80;;;;;;;16.34;45.45;100442.31;8313954;28;20042;-63
2022/04/11 13:25:43;;;;;;;5.82;2.28;;;;;;;16.68;45.53;100449.13;8314055;28;20084;-63
2022/04/11 13:29:44;;;;;;;3.97;2.33;;;;;;;16.79;44.76;100434.19;8311451;28;20439;-63
2022/04/11 13:33:44;;;;;;;5.10;2.35;;;;;;;16.70;44.29;100427.09;8305759;28;20123;-63
2022/04/11 13:37:46;;;;;;;5.23;2.37;;;;;;;16.95;46.14;100431.31;8311102;28;20053;-64
2022/04/11 13:41:48;;;;;;;8.70;2.72;;;;;;;16.76;45.04;100415.44;8309953;28;20291;-63
2022/04/11 13:45:49;;;;;;;8.43;2.33;;;;;;;16.88;44.89;100408.53;8315183;28;20538;-63
2022/04/11 13:49:49;;;;;;;6.53;1.98;;;;;;;16.52;45.71;100423.81;8315633;28;20397;-63
2022/04/11 13:53:50;;;;;;;4.30;2.17;;;;;;;16.41;44.57;100405.09;8300462;28;20383;-63
2022/04/11 13:57:51;;;;;;;3.67;2.13;;;;;;;16.31;45.67;100399.03;8317417;28;20597;-63
2022/04/11 14:01:53;;;;;;;3.53;2.70;;;;;;;16.47;45.35;100401.69;8304034;28;20048;-63
2022/04/11 14:05:53;;;;;;;5.50;3.05;;;;;;;16.58;46.16;100401.25;8314600;28;20853;-63
2022/04/11 14:09:53;;;;;;;4.03;2.33;;;;;;;16.37;45.49;100395.56;8298391;28;20097;-64
2022/04/11 14:13:54;;;;;;;4.33;2.50;;;;;;;16.63;45.29;100382.47;8309329;28;20355;-63
2022/04/11 14:17:56;;;;;;;5.38;2.67;;;;;;;16.74;45.37;100373.84;8389139;22;20331;-93
2022/04/11 14:21:56;;;;;;;9.93;3.25;;;;;;;16.79;45.34;100358.59;8348636;28;20040;-89
2022/04/11 14:25:58;;;;;;;5.40;2.45;;;;;;;16.55;46.17;100330.66;8337597;28;20182;-88
2022/04/11 14:29:58;;;;;;;7.22;3.08;;;;;;;16.65;45.26;100353.09;8335957;28;20036;-90
2022/04/11 14:33:58;;;;;;;8.48;3.45;;;;;;;16.29;44.98;100330.16;8355674;28;20063;-89
2022/04/11 14:37:59;;;;;;;4.10;2.17;;;;;;;16.40;45.73;100311.47;8357033;28;20062;-90
2022/04/11 14:42:01;;;;;;;5.43;2.55;;;;;;;16.75;45.79;100326.38;8335587;28;20142;-89
2022/04/11 14:46:03;;;;;;;9.45;3.15;;;;;;;16.57;45.47;100323.13;8334546;28;20121;-88
2022/04/11 14:50:03;;;;;;;6.30;2.97;;;;;;;16.56;46.06;100329.63;8362036;28;20443;-88
2022/04/11 14:54:04;;;;;;;5.30;2.50;;;;;;;16.34;46.05;100292.25;8352618;28;20053;-91
2022/04/11 14:58:06;;;;;;;5.10;2.65;;;;;;;16.55;46.84;100304.22;8336906;28;20061;-91
2022/04/11 15:02:06;;;;;;;5.57;3.08;;;;;;;16.52;46.14;100314.63;8343028;28;20085;-90
2022/04/11 15:06:07;;;;;;;8.43;4.32;;;;;;;16.39;46.12;100270.72;8353650;28;20040;-89
2022/04/11 15:10:09;;;;;;;20.38;13.80;;;;;;;16.52;45.74;100292.81;8356797;28;20099;-89
2022/04/11 15:14:09;;;;;;;5.53;3.22;;;;;;;16.57;45.32;100284.94;8367290;28;20487;-90
2022/04/11 15:18:10;;;;;;;6.28;2.47;;;;;;;16.33;45.52;100280.50;8343108;28;20040;-88
2022/04/11 15:22:10;;;;;;;7.45;2.50;;;;;;;16.19;45.23;100253.19;8359448;28;20033;-89
2022/04/11 15:26:10;;;;;;;5.60;2.33;;;;;;;16.50;45.17;100273.06;8331256;28;20070;-90
2022/04/11 15:30:11;;;;;;;4.78;2.50;;;;;;;16.61;45.26;100275.31;8349009;28;20056;-89
2022/04/11 15:34:12;;;;;;;7.28;4.40;;;;;;;16.49;45.84;100277.66;8363328;28;20056;-91
2022/04/11 15:38:13;;;;;;;6.85;3.33;;;;;;;16.40;45.38;100277.88;8344111;28;20036;-91
2022/04/11 15:42:13;;;;;;;6.28;2.55;;;;;;;16.40;45.63;100283.31;8338673;28;20048;-91
2022/04/11 15:46:13;;;;;;;3.38;2.13;;;;;;;16.42;46.23;100259.44;8337840;28;20037;-89
2022/04/11 15:50:14;;;;;;;2.88;2.22;;;;;;;16.34;46.05;100267.69;8335678;28;20045;-89
2022/04/11 15:54:16;;;;;;;5.40;2.00;;;;;;;16.28;45.79;100260.25;8342036;28;20067;-93
2022/04/11 15:58:20;;;;;;;4.20;2.10;;;;;;;15.99;46.03;100230.13;8352063;28;20044;-94
2022/04/11 16:02:22;;;;;;;5.72;1.95;;;;;;;16.14;47.97;100250.13;8324856;28;20530;-92
2022/04/11 16:06:26;;;;;;;2.45;1.83;;;;;;;16.05;46.26;100252.09;8342356;28;20076;-90
2022/04/11 16:10:26;;;;;;;3.30;1.90;;;;;;;16.13;46.63;100256.63;8356129;28;20439;-91
2022/04/11 16:15:11;;;;;;;4.25;2.30;;;;;;;16.20;47.53;100260.31;8383091;28;20029;-94
2022/04/11 16:19:12;;;;;;;5.47;2.05;;;;;;;16.06;47.12;100256.50;8414274;28;20045;-91
2022/04/11 16:23:18;;;;;;;6.47;2.58;;;;;;;15.68;47.31;100206.50;8343547;28;20409;-94
2022/04/11 16:27:23;;;;;;;6.82;2.38;;;;;;;15.63;48.21;100203.50;8370879;28;20040;-91
2022/04/11 16:31:24;;;;;;;4.70;2.53;;;;;;;15.57;47.14;100201.47;8331738;28;20059;-92
2022/04/11 16:40:21;;;;;;;2.72;1.80;;;;;;;15.70;47.99;100244.47;8271001;28;20078;-62
2022/04/11 16:44:21;;;;;;;5.15;1.77;;;;;;;15.80;47.44;100241.53;8224768;28;20038;-62
2022/04/11 16:48:21;;;;;;;7.35;2.42;;;;;;;15.69;48.42;100240.94;8260819;28;20045;-62
2022/04/11 16:52:22;;;;;;;4.07;2.00;;;;;;;15.66;47.97;100233.09;8304708;28;20041;-62
2022/04/11 16:56:22;;;;;;;4.63;2.10;;;;;;;15.63;47.58;100228.00;8258727;28;20819;-62
2022/04/11 17:00:23;;;;;;;5.40;2.40;;;;;;;15.58;47.72;100229.56;8279371;28;20077;-62
2022/04/11 17:04:24;;;;;;;4.18;2.10;;;;;;;15.54;47.98;100229.09;8272514;28;20108;-62
2022/04/11 17:08:24;;;;;;;3.35;2.38;;;;;;;15.52;48.29;100219.38;8265829;28;20049;-62
2022/04/11 17:12:25;;;;;;;6.22;3.47;;;;;;;15.43;48.71;100234.06;8293678;28;20037;-62
2022/04/11 17:20:46;;;;;;;7.78;4.63;;;;;;;15.34;49.12;100224.25;8287419;28;20111;-62
2022/04/11 17:24:46;;;;;;;9.02;5.28;;;;;;;15.29;48.99;100227.50;8264449;28;20111;-62
2022/04/11 17:28:47;;;;;;;7.97;3.83;;;;;;;15.22;49.65;100221.03;8299495;28;20042;-62
2022/04/11 17:32:47;;;;;;;7.47;5.18;;;;;;;15.18;49.78;100219.72;8279330;28;20042;-62
2022/04/11 17:36:47;;;;;;;6.10;3.17;;;;;;;15.20;48.86;100223.13;8280390;28;20163;-62
2022/04/11 17:40:51;;;;;;;7.07;4.88;;;;;;;15.14;48.95;100228.41;8251682;28;20084;-63
2022/04/11 17:44:51;;;;;;;8.30;4.77;;;;;;;15.16;48.59;100232.66;8293426;28;20120;-64
2022/04/11 17:48:52;;;;;;;11.02;4.60;;;;;;;15.12;48.76;100225.00;8285620;28;20068;-65
2022/04/11 17:52:53;;;;;;;8.35;4.97;;;;;;;14.93;49.62;100231.72;8278633;28;20034;-65
2022/04/11 17:56:53;;;;;;;14.88;5.15;;;;;;;14.76;50.27;100227.34;8268782;28;20038;-65
2022/04/11 18:00:54;;;;;;;9.48;4.75;;;;;;;14.65;50.69;100238.63;8274364;28;20037;-65
2022/04/11 18:04:55;;;;;;;10.82;5.22;;;;;;;14.58;50.94;100239.47;8272611;28;20512;-65
2022/04/11 18:08:57;;;;;;;6.63;4.90;;;;;;;14.37;51.48;100242.75;8275661;28;20444;-65
2022/04/11 18:12:57;;;;;;;8.18;5.13;;;;;;;14.30;51.82;100244.44;8280801;28;20076;-65
2022/04/11 18:16:57;;;;;;;7.32;5.07;;;;;;;14.17;51.74;100244.06;8247765;28;20127;-64
2022/04/11 18:20:58;;;;;;;5.18;3.70;;;;;;;14.16;51.65;100253.25;8263096;28;20580;-64
2022/04/11 18:24:58;;;;;;;8.17;3.83;;;;;;;14.14;51.52;100265.28;8251126;28;20487;-64
2022/04/11 18:33:19;;;;;;;6.07;4.25;;;;;;;14.01;52.18;100271.25;8270221;28;20041;-65
2022/04/11 18:37:20;;;;;;;5.82;3.00;;;;;;;13.94;52.37;100270.25;8270167;28;20073;-65
2022/04/11 18:41:21;;;;;;;6.45;4.32;;;;;;;13.88;52.44;100275.47;8281977;28;20421;-65
2022/04/11 18:45:23;;;;;;;5.90;3.40;;;;;;;13.78;52.39;100286.50;8270508;28;20219;-65
2022/04/11 18:49:24;;;;;;;7.57;3.80;;;;;;;13.66;52.91;100277.81;8249615;28;20092;-64
2022/04/11 18:53:24;;;;;;;7.25;3.08;;;;;;;13.54;53.29;100295.44;8252036;28;20038;-64
2022/04/11 18:57:25;;;;;;;4.75;3.33;;;;;;;13.51;53.50;100300.38;8257373;28;20343;-64
2022/04/11 19:01:25;;;;;;;8.07;3.90;;;;;;;13.40;53.89;100308.78;8244331;28;20069;-64
2022/04/11 19:05:26;;;;;;;6.65;4.22;;;;;;;13.24;54.60;100325.03;8246324;28;20038;-64
2022/04/11 19:09:26;;;;;;;4.50;3.03;;;;;;;13.14;54.90;100326.97;8246213;28;20038;-64